Solana — WCY5602 — position and weather

sailwx.info

Track history (hours):
 
Tides and Currents Weather Stations Pressure Air Temp Water Temp Dewpoint Dewpoint Depression Visibility Wind Speed Wind Dir Waves Ship Positions

Solana

Owner: TAURUS MARINE, SAN FRANCISCO, CA. More information available from US FCC via Universal Licensing System and Coast Guard Vessel Documentation Center.

Last reported at 2015-May-03 23:36 UTC. Time now 2015-May-04 00:56 UTC.
Position N 47°34' W 122°21'.

Type: Towing. MMSI: 366969740.

Date/timePositionNaut miles runAvg speedWind from/ knotsBaromVisibWave heightAir tempDewpointWater temp
2015-May-03 23:36N 47°34' W 122°21'0 0.0
2015-May-03 23:33N 47°34' W 122°21'0 0.0
2015-May-03 23:31N 47°34' W 122°21'5 5.6
2015-May-03 22:33N 47°38' W 122°26'0 8.7
2015-May-03 22:31N 47°39' W 122°26'2 2.0
2015-May-03 21:33N 47°40' W 122°24'0 0.0
2015-May-03 21:31N 47°40' W 122°24'1 1.5
2015-May-03 20:33N 47°39' W 122°22'0 5.3
2015-May-03 20:30N 47°39' W 122°21'1 0.1
2015-May-03 13:05N 47°39' W 122°20'0 0.1
2015-May-03 13:03N 47°39' W 122°20'0 0.0
2015-May-03 12:33N 47°39' W 122°20'0 0.0
2015-May-03 12:33N 47°39' W 122°20'0 0.0
2015-May-03 11:33N 47°39' W 122°20'0 0.0
2015-May-03 11:32N 47°39' W 122°20'0 0.0
2015-May-03 10:33N 47°39' W 122°20'0 0.4
2015-May-03 10:33N 47°39' W 122°20'0 0.0
2015-May-03 09:33N 47°39' W 122°20'0 0.0
2015-May-03 09:32N 47°39' W 122°20'0 0.0
2015-May-03 08:33N 47°39' W 122°20'0 0.0
2015-May-03 08:31N 47°39' W 122°20'0 0.0
2015-May-03 07:33N 47°39' W 122°20'0 0.0
2015-May-03 07:31N 47°39' W 122°20'0 0.0
2015-May-03 06:51N 47°39' W 122°20'0 0.0
2015-May-03 06:33N 47°39' W 122°20'0 0.0
2015-May-03 05:33N 47°39' W 122°20'0 0.0
2015-May-03 05:30N 47°39' W 122°20'0 0.0
2015-May-03 04:33N 47°39' W 122°20'0 0.1
2015-May-03 04:29N 47°39' W 122°20'0 0.0
2015-May-03 03:33N 47°39' W 122°20'0 0.1
2015-May-03 03:30N 47°39' W 122°20'0 0.0
2015-May-03 02:33N 47°39' W 122°20'0 0.0
2015-May-03 02:30N 47°39' W 122°20'0 0.0
2015-May-03 01:33N 47°39' W 122°20'0 0.1
2015-May-03 01:30N 47°39' W 122°20'0 0.0
2015-May-03 00:32N 47°39' W 122°20'0 0.0
2015-May-03 00:29N 47°39' W 122°20'0 0.0
2015-May-02 23:33N 47°39' W 122°20'0 0.0
2015-May-02 23:29N 47°39' W 122°20'3 3.4
2015-May-02 22:33N 47°39' W 122°16'1 0.6
2015-May-02 21:32N 47°39' W 122°17'0 0.2
2015-May-02 21:16N 47°39' W 122°17'1 1.9
2015-May-02 20:33N 47°38' W 122°15'0 0.0
2015-May-02 19:45N 47°38' W 122°15'0 0.0
2015-May-02 19:33N 47°38' W 122°15'0 0.0
2015-May-02 18:59N 47°38' W 122°15'0 0.0
2015-May-02 18:33N 47°38' W 122°15'0 0.0
2015-May-02 18:18N 47°38' W 122°15'1 1.0
2015-May-02 17:34N 47°39' W 122°16'0 7.7
2015-May-02 17:33N 47°39' W 122°15'0 0.4
2015-May-02 16:31N 47°39' W 122°15'0 6.0
2015-May-02 16:28N 47°39' W 122°15'0 0.2
2015-May-02 15:30N 47°39' W 122°15'2 4.3
2015-May-02 15:07N 47°40' W 122°15'4 7.4
2015-May-02 14:33N 47°44' W 122°16'0 0.2
2015-May-02 13:36N 47°45' W 122°16'0 3.5
2015-May-02 13:29N 47°45' W 122°16'2 2.2
2015-May-02 12:46N 47°43' W 122°16'2 8.4
2015-May-02 12:33N 47°42' W 122°15'1 8.1
2015-May-02 12:26N 47°41' W 122°15'4 4.5
2015-May-02 11:34N 47°39' W 122°20'0 3.7
2015-May-02 11:25N 47°39' W 122°20'3 3.1
2015-May-02 10:33N 47°40' W 122°24'0 0.9
2015-May-02 10:30N 47°40' W 122°24'5 4.8
2015-May-02 09:34N 47°36' W 122°26'1 7.7
2015-May-02 09:29N 47°35' W 122°26'7 7.3
2015-May-02 08:33N 47°29' W 122°30'7 8.6
2015-May-02 07:43N 47°22' W 122°32'1 9.0
2015-May-02 07:33N 47°20' W 122°32'7 6.7
2015-May-02 06:32N 47°16' W 122°24'2 2.5
2015-May-02 05:33N 47°18' W 122°27'8 7.9
2015-May-02 04:33N 47°25' W 122°32'3 8.1
2015-May-02 04:08N 47°28' W 122°31'5 8.4
2015-May-02 03:33N 47°33' W 122°28'1 8.9
2015-May-02 03:27N 47°34' W 122°28'7 8.2
2015-May-02 02:33N 47°41' W 122°25'1 1.7
2015-May-02 01:40N 47°40' W 122°23'0 0.0
2015-May-02 01:33N 47°40' W 122°23'0 0.0
2015-May-02 01:31N 47°40' W 122°23'3 2.8
2015-May-02 00:33N 47°38' W 122°20'0 0.8
2015-May-02 00:29N 47°39' W 122°20'3 3.4
2015-May-01 23:33N 47°39' W 122°15'0 0.0
2015-May-01 23:33N 47°39' W 122°15'3 3.5
2015-May-01 22:33N 47°39' W 122°20'0 0.0
2015-May-01 22:32N 47°39' W 122°20'0 0.0
2015-May-01 21:33N 47°39' W 122°20'0 0.0
2015-May-01 21:32N 47°39' W 122°20'0 0.0
2015-May-01 20:33N 47°39' W 122°20'0 0.0
2015-May-01 20:31N 47°39' W 122°20'0 0.0
2015-May-01 19:33N 47°39' W 122°20'0 0.0
2015-May-01 18:59N 47°39' W 122°20'0 0.0
2015-May-01 18:33N 47°39' W 122°20'0 0.0
2015-May-01 18:29N 47°39' W 122°20'0 0.5
2015-May-01 17:33N 47°38' W 122°20'0 5.2
2015-May-01 17:29N 47°39' W 122°20'0 0.1
2015-May-01 16:33N 47°39' W 122°20'0 0.0
2015-May-01 16:24N 47°39' W 122°20'0 0.0
2015-May-01 15:33N 47°39' W 122°20'0 0.0
2015-May-01 15:07N 47°39' W 122°20'0 0.0
2015-May-01 14:34N 47°39' W 122°20'0 0.0
2015-May-01 14:32N 47°39' W 122°20'0 0.0
2015-May-01 13:34N 47°39' W 122°20'0 0.0
2015-May-01 13:31N 47°39' W 122°20'0 0.0
2015-May-01 12:34N 47°39' W 122°20'0 0.0
2015-May-01 11:33N 47°39' W 122°20'0 0.0
2015-May-01 10:46N 47°39' W 122°20'0 0.2
2015-May-01 10:34N 47°39' W 122°20'0 1.1
2015-May-01 10:31N 47°39' W 122°20'0 0.0
2015-May-01 09:34N 47°39' W 122°20'0 0.0
2015-May-01 09:31N 47°39' W 122°20'0 0.0
2015-May-01 08:34N 47°39' W 122°20'0 0.0
2015-May-01 08:31N 47°39' W 122°20'0 0.0
2015-May-01 07:33N 47°39' W 122°20'0 0.1
2015-May-01 07:30N 47°39' W 122°20'0 0.0
2015-May-01 06:34N 47°39' W 122°20'0 0.0
2015-May-01 06:30N 47°39' W 122°20'0 0.0
2015-May-01 06:15N 47°39' W 122°20'0 0.0
2015-May-01 05:33N 47°39' W 122°20'0 0.0
2015-May-01 04:34N 47°39' W 122°20'0 0.1
2015-May-01 04:29N 47°39' W 122°20'0 0.0
2015-May-01 03:34N 47°39' W 122°20'0 0.0
2015-May-01 02:47N 47°39' W 122°20'0 0.0
2015-May-01 02:32N 47°39' W 122°20'0 0.0
2015-May-01 02:21N 47°39' W 122°20'0 0.0
2015-May-01 01:36N 47°39' W 122°20'0 0.0
2015-May-01 01:34N 47°39' W 122°20'0 0.0
2015-May-01 00:33N 47°39' W 122°20'0 0.0
2015-May-01 00:30N 47°39' W 122°20'0 0.0
2015-Apr-30 23:33N 47°39' W 122°20'0 0.0
2015-Apr-30 23:31N 47°39' W 122°20'0 0.0
2015-Apr-30 22:34N 47°39' W 122°20'0 0.0
2015-Apr-30 22:31N 47°39' W 122°20'0 0.0
2015-Apr-30 21:34N 47°39' W 122°20'0 0.0
2015-Apr-30 21:30N 47°39' W 122°20'0 0.0
2015-Apr-30 20:33N 47°39' W 122°20'0 0.0
2015-Apr-30 20:29N 47°39' W 122°20'0 0.0
2015-Apr-30 19:33N 47°39' W 122°20'0 0.0
2015-Apr-30 19:29N 47°39' W 122°20'0 0.0
2015-Apr-30 18:34N 47°39' W 122°20'0 0.0
2015-Apr-30 18:33N 47°39' W 122°20'0 0.0
2015-Apr-30 17:33N 47°39' W 122°20'0 0.0
2015-Apr-30 17:33N 47°39' W 122°20'0 0.0
2015-Apr-30 16:33N 47°39' W 122°20'0 0.0
2015-Apr-30 16:33N 47°39' W 122°20'0 0.0
2015-Apr-30 15:33N 47°39' W 122°20'0 0.0
2015-Apr-30 15:32N 47°39' W 122°20'0 0.0
2015-Apr-30 14:34N 47°39' W 122°20'0 0.2
2015-Apr-30 14:31N 47°39' W 122°20'0 0.0
2015-Apr-30 13:33N 47°39' W 122°20'0 0.0
2015-Apr-30 13:24N 47°39' W 122°20'0 0.0
2015-Apr-30 12:33N 47°39' W 122°20'0 0.0
2015-Apr-30 12:33N 47°39' W 122°20'0 0.0
2015-Apr-30 11:34N 47°39' W 122°20'0 0.7
2015-Apr-30 11:33N 47°39' W 122°20'0 0.0
2015-Apr-30 10:33N 47°39' W 122°20'0 0.0
2015-Apr-30 10:33N 47°39' W 122°20'0 0.0
2015-Apr-30 09:34N 47°39' W 122°20'0 0.0
2015-Apr-30 09:32N 47°39' W 122°20'0 0.0
2015-Apr-30 08:34N 47°39' W 122°20'0 0.0
2015-Apr-30 08:32N 47°39' W 122°20'0 0.0
2015-Apr-30 07:34N 47°39' W 122°20'0 0.0
2015-Apr-30 07:32N 47°39' W 122°20'0 0.0
2015-Apr-30 06:33N 47°39' W 122°20'0 0.0
2015-Apr-30 06:31N 47°39' W 122°20'0 0.0
2015-Apr-30 06:06N 47°39' W 122°20'0 0.0
2015-Apr-30 05:33N 47°39' W 122°20'0 0.0
2015-Apr-30 04:34N 47°39' W 122°20'0 0.0
2015-Apr-30 04:31N 47°39' W 122°20'0 0.0
2015-Apr-30 03:34N 47°39' W 122°20'0 0.0
2015-Apr-30 03:30N 47°39' W 122°20'0 0.0
2015-Apr-30 02:34N 47°39' W 122°20'0 0.0
2015-Apr-30 02:25N 47°39' W 122°20'0 0.0
2015-Apr-30 01:34N 47°39' W 122°20'0 0.0
2015-Apr-30 01:30N 47°39' W 122°20'0 0.0
2015-Apr-30 00:34N 47°39' W 122°20'0 0.0
2015-Apr-29 23:33N 47°39' W 122°20'0 0.0
2015-Apr-29 23:01N 47°39' W 122°20'0 0.0
2015-Apr-29 22:33N 47°39' W 122°20'0 0.0
2015-Apr-29 22:31N 47°39' W 122°20'0 0.0
2015-Apr-29 21:33N 47°39' W 122°20'0 0.0
2015-Apr-29 21:31N 47°39' W 122°20'0 0.0
2015-Apr-29 20:33N 47°39' W 122°20'0 0.2
2015-Apr-29 20:31N 47°39' W 122°20'0 0.0
2015-Apr-29 19:34N 47°39' W 122°20'0 0.0
2015-Apr-29 19:20N 47°39' W 122°20'0 0.0
2015-Apr-29 18:33N 47°39' W 122°20'0 0.0
2015-Apr-29 18:30N 47°39' W 122°20'0 0.0
2015-Apr-29 17:33N 47°39' W 122°20'0 0.0
2015-Apr-29 17:23N 47°39' W 122°20'0 0.0
2015-Apr-29 16:34N 47°39' W 122°20'0 0.0
2015-Apr-29 16:34N 47°39' W 122°20'0 0.0
2015-Apr-29 15:33N 47°39' W 122°20'0 0.0
2015-Apr-29 15:33N 47°39' W 122°20'0 0.1
2015-Apr-29 14:33N 47°39' W 122°20'0 0.0
2015-Apr-28 20:30N 47°39' W 122°20'0 0.0
2015-Apr-28 20:28N 47°39' W 122°20'0 0.1
2015-Apr-28 19:03N 47°39' W 122°20'0 0.0
2015-Apr-28 19:02N 47°39' W 122°20'0 0.0
2015-Apr-28 18:33N 47°39' W 122°20'0 0.0
2015-Apr-28 18:32N 47°39' W 122°20'3 3.1
2015-Apr-28 17:33N 47°40' W 122°24'0 0.0
2015-Apr-28 17:32N 47°40' W 122°24'5 5.4
2015-Apr-28 16:32N 47°35' W 122°22'1 7.4
2015-Apr-28 16:26N 47°34' W 122°21'0 0.3
2015-Apr-28 15:33N 47°34' W 122°21'0 0.1
2015-Apr-28 15:30N 47°34' W 122°21'1 1.2
2015-Apr-28 14:33N 47°35' W 122°22'0 4.3
2015-Apr-28 14:29N 47°36' W 122°22'1 0.8
2015-Apr-28 13:33N 47°36' W 122°23'1 6.2
2015-Apr-28 13:19N 47°37' W 122°24'3 3.9
2015-Apr-28 12:33N 47°40' W 122°24'0 5.1
2015-Apr-28 12:29N 47°40' W 122°24'3 2.8
2015-Apr-28 11:33N 47°39' W 122°20'0 0.0
2015-Apr-28 11:29N 47°39' W 122°20'0 0.0
2015-Apr-28 10:33N 47°39' W 122°20'0 0.0
2015-Apr-28 10:33N 47°39' W 122°20'0 0.0
2015-Apr-28 09:33N 47°39' W 122°20'0 0.0
2015-Apr-28 09:33N 47°39' W 122°20'0 0.0
2015-Apr-28 08:29N 47°39' W 122°20'0 0.0
2015-Apr-28 08:26N 47°39' W 122°20'0 0.0
2015-Apr-28 07:33N 47°39' W 122°20'0 0.0
2015-Apr-28 07:31N 47°39' W 122°20'0 0.0
2015-Apr-28 06:33N 47°39' W 122°20'0 0.0
2015-Apr-28 06:31N 47°39' W 122°20'0 0.0
2015-Apr-28 06:11N 47°39' W 122°20'0 0.0
2015-Apr-28 05:33N 47°39' W 122°20'0 0.0
2015-Apr-28 04:32N 47°39' W 122°20'0 0.0
2015-Apr-28 04:30N 47°39' W 122°20'0 0.0
2015-Apr-28 03:33N 47°39' W 122°20'0 0.0
2015-Apr-28 03:30N 47°39' W 122°20'0 0.0
2015-Apr-28 02:33N 47°39' W 122°20'0 0.0
2015-Apr-28 02:30N 47°39' W 122°20'0 0.0
2015-Apr-28 01:33N 47°39' W 122°20'0 0.0
2015-Apr-28 01:29N 47°39' W 122°20'0 0.0
2015-Apr-28 00:33N 47°39' W 122°20'0 0.0
2015-Apr-28 00:29N 47°39' W 122°20'0 0.0
2015-Apr-27 23:33N 47°39' W 122°20'0 0.0
2015-Apr-27 23:28N 47°39' W 122°20'0 0.0
2015-Apr-27 22:34N 47°39' W 122°20'0 0.0
2015-Apr-27 22:33N 47°39' W 122°20'0 0.0
2015-Apr-27 21:33N 47°39' W 122°20'0 0.0
2015-Apr-27 21:33N 47°39' W 122°20'0 0.0
2015-Apr-27 20:32N 47°39' W 122°20'0 0.0
2015-Apr-27 20:28N 47°39' W 122°20'0 0.0
2015-Apr-27 19:33N 47°39' W 122°20'0 0.0
2015-Apr-27 19:33N 47°39' W 122°20'0 0.0
2015-Apr-27 18:33N 47°39' W 122°20'0 0.0
2015-Apr-27 18:33N 47°39' W 122°20'0 0.0
2015-Apr-27 17:33N 47°39' W 122°20'0 0.0
2015-Apr-27 17:32N 47°39' W 122°20'0 0.0
2015-Apr-27 16:33N 47°39' W 122°20'0 0.0
2015-Apr-27 16:32N 47°39' W 122°20'0 0.0
2015-Apr-27 15:33N 47°39' W 122°20'0 0.0
2015-Apr-27 15:32N 47°39' W 122°20'0 0.0
2015-Apr-27 14:33N 47°39' W 122°20'0 0.0
2015-Apr-27 14:32N 47°39' W 122°20'3 3.5
2015-Apr-27 13:33N 47°39' W 122°15'0 4.0
2015-Apr-27 13:31N 47°39' W 122°15'6 6.5
2015-Apr-27 12:33N 47°45' W 122°16'1 0.7
2015-Apr-27 11:33N 47°45' W 122°16'0 0.0
2015-Apr-27 10:33N 47°45' W 122°16'5 6.1
2015-Apr-27 09:49N 47°40' W 122°15'2 7.6
2015-Apr-27 09:30N 47°39' W 122°18'1 6.4
2015-Apr-27 09:24N 47°39' W 122°19'1 1.3
2015-Apr-27 08:33N 47°39' W 122°20'0 0.0
2015-Apr-27 08:33N 47°39' W 122°20'0 0.0
2015-Apr-27 07:33N 47°39' W 122°20'0 0.0
2015-Apr-27 07:33N 47°39' W 122°20'0 0.0
2015-Apr-27 06:33N 47°39' W 122°20'0 0.0
2015-Apr-27 06:32N 47°39' W 122°20'0 0.0
2015-Apr-27 06:08N 47°39' W 122°20'0 0.0
2015-Apr-27 05:33N 47°39' W 122°20'0 0.0
2015-Apr-27 04:33N 47°39' W 122°20'0 0.0
2015-Apr-27 04:27N 47°39' W 122°20'0 0.0
2015-Apr-27 03:33N 47°39' W 122°20'0 0.0
2015-Apr-27 03:32N 47°39' W 122°20'0 0.0
2015-Apr-27 02:33N 47°39' W 122°20'0 0.0
2015-Apr-27 02:32N 47°39' W 122°20'0 0.0
2015-Apr-27 01:33N 47°39' W 122°20'0 0.0
2015-Apr-27 01:32N 47°39' W 122°20'0 0.0
2015-Apr-27 00:33N 47°39' W 122°20'0 0.0
2015-Apr-27 00:31N 47°39' W 122°20'0 0.0
2015-Apr-26 23:33N 47°39' W 122°20'0 0.0
2015-Apr-26 23:31N 47°39' W 122°20'0 0.0
2015-Apr-26 22:33N 47°39' W 122°20'0 0.0
2015-Apr-26 22:31N 47°39' W 122°20'0 0.0
2015-Apr-26 21:30N 47°39' W 122°20'0 0.0
2015-Apr-26 21:30N 47°39' W 122°20'0 0.0
2015-Apr-26 20:33N 47°39' W 122°20'0 0.0
2015-Apr-26 20:25N 47°39' W 122°20'0 0.0
2015-Apr-26 19:33N 47°39' W 122°20'0 0.0
2015-Apr-26 19:30N 47°39' W 122°20'0 0.0
2015-Apr-26 18:33N 47°39' W 122°20'0 0.0
2015-Apr-26 18:02N 47°39' W 122°20'0 0.0
2015-Apr-26 17:33N 47°39' W 122°20'0 0.0
2015-Apr-26 17:32N 47°39' W 122°20'0 0.0
2015-Apr-26 15:21N 47°39' W 122°20'0 0.0
2015-Apr-26 15:18N 47°39' W 122°20'0 0.0
2015-Apr-26 14:33N 47°39' W 122°20'0 0.0
2015-Apr-26 14:33N 47°39' W 122°20'0 0.0
2015-Apr-26 13:33N 47°39' W 122°20'0 0.0
2015-Apr-26 13:33N 47°39' W 122°20'0 0.0
2015-Apr-26 12:33N 47°39' W 122°20'0 0.0
2015-Apr-26 12:33N 47°39' W 122°20'0 0.0
2015-Apr-26 11:16N 47°39' W 122°20'0 0.0
2015-Apr-26 10:33N 47°39' W 122°20'0 0.0
2015-Apr-26 10:30N 47°39' W 122°20'0 0.0
2015-Apr-26 09:23N 47°39' W 122°20'0 0.0
2015-Apr-26 09:20N 47°39' W 122°20'0 0.0
2015-Apr-26 08:33N 47°39' W 122°20'0 0.0
2015-Apr-26 08:30N 47°39' W 122°20'0 0.0
2015-Apr-26 07:33N 47°39' W 122°20'0 0.0
2015-Apr-26 07:30N 47°39' W 122°20'0 0.0
2015-Apr-26 06:24N 47°39' W 122°20'0 0.0
2015-Apr-26 05:27N 47°39' W 122°20'0 0.0
2015-Apr-26 05:22N 47°39' W 122°20'0 0.0
2015-Apr-26 04:32N 47°39' W 122°20'0 0.0
2015-Apr-26 04:26N 47°39' W 122°20'0 0.0
2015-Apr-26 03:33N 47°39' W 122°20'0 0.0
2015-Apr-26 03:31N 47°39' W 122°20'0 0.0
2015-Apr-26 02:33N 47°39' W 122°20'0 0.0
2015-Apr-26 02:31N 47°39' W 122°20'0 0.0
2015-Apr-26 01:33N 47°39' W 122°20'0 0.0
2015-Apr-26 01:31N 47°39' W 122°20'0 0.0
2015-Apr-26 00:33N 47°39' W 122°20'0 0.0
2015-Apr-26 00:30N 47°39' W 122°20'0 0.0
2015-Apr-25 23:33N 47°39' W 122°20'0 0.0
2015-Apr-25 23:30N 47°39' W 122°20'0 0.0
2015-Apr-25 22:33N 47°39' W 122°20'0 0.0
2015-Apr-25 22:30N 47°39' W 122°20'0 0.0
2015-Apr-25 21:15N 47°39' W 122°20'0 0.0
2015-Apr-25 20:31N 47°39' W 122°20'0 0.0
2015-Apr-25 18:15N 47°39' W 122°20'0 0.0
2015-Apr-25 06:19N 47°39' W 122°20'0 0.0
2015-Apr-25 04:10N 47°39' W 122°20'0 0.0
2015-Apr-25 03:31N 47°39' W 122°20'0 0.0
2015-Apr-25 01:29N 47°39' W 122°20'0 0.0
2015-Apr-25 00:29N 47°39' W 122°20'0 0.0
2015-Apr-24 23:33N 47°39' W 122°20'0 0.0
2015-Apr-24 22:33N 47°39' W 122°20'0 0.0
2015-Apr-24 21:33N 47°39' W 122°20'0 0.0
2015-Apr-24 20:33N 47°39' W 122°20'0 0.0
2015-Apr-24 19:33N 47°39' W 122°20'0 0.0
2015-Apr-24 18:33N 47°39' W 122°20'0 0.0
2015-Apr-24 17:31N 47°39' W 122°20'0 0.0
2015-Apr-24 16:33N 47°39' W 122°20'0 0.0
2015-Apr-24 15:33N 47°39' W 122°20'0 0.0
2015-Apr-24 14:33N 47°39' W 122°20'0 0.0
2015-Apr-24 13:33N 47°39' W 122°20'0 0.0
2015-Apr-24 12:33N 47°39' W 122°20'0 0.0
2015-Apr-24 11:33N 47°39' W 122°20'0 0.0
2015-Apr-24 10:33N 47°39' W 122°20'0 0.0
2015-Apr-24 09:33N 47°39' W 122°20'0 0.0
2015-Apr-24 08:33N 47°39' W 122°20'0 0.0
2015-Apr-24 07:33N 47°39' W 122°20'0 0.0
2015-Apr-24 06:33N 47°39' W 122°20'0 0.0
2015-Apr-24 05:33N 47°39' W 122°20'0 0.0
2015-Apr-24 04:33N 47°39' W 122°20'0 0.0
2015-Apr-24 03:32N 47°39' W 122°20'0 0.0
2015-Apr-24 02:33N 47°39' W 122°20'0 0.0
2015-Apr-24 01:33N 47°39' W 122°20'0 0.0
2015-Apr-24 00:29N 47°39' W 122°20'  
Track history (hours):
 
Tides and Currents Weather Stations Pressure Air Temp Water Temp Dewpoint Dewpoint Depression Visibility Wind Speed Wind Dir Waves Ship Positions

Solana

Owner: TAURUS MARINE, SAN FRANCISCO, CA. More information available from US FCC via Universal Licensing System and Coast Guard Vessel Documentation Center.

Last reported at 2015-May-03 23:36 UTC. Time now 2015-May-04 00:56 UTC.
Position N 47°34' W 122°21'.

Type: Towing. MMSI: 366969740.

Date/timePositionNaut miles runAvg speedWind from/ knotsBaromVisibWave heightAir tempDewpointWater temp
2015-May-03 23:36N 47°34' W 122°21'0 0.0
2015-May-03 23:33N 47°34' W 122°21'0 0.0
2015-May-03 23:31N 47°34' W 122°21'5 5.6
2015-May-03 22:33N 47°38' W 122°26'0 8.7
2015-May-03 22:31N 47°39' W 122°26'2 2.0
2015-May-03 21:33N 47°40' W 122°24'0 0.0
2015-May-03 21:31N 47°40' W 122°24'1 1.5
2015-May-03 20:33N 47°39' W 122°22'0 5.3
2015-May-03 20:30N 47°39' W 122°21'1 0.1
2015-May-03 13:05N 47°39' W 122°20'0 0.1
2015-May-03 13:03N 47°39' W 122°20'0 0.0
2015-May-03 12:33N 47°39' W 122°20'0 0.0
2015-May-03 12:33N 47°39' W 122°20'0 0.0
2015-May-03 11:33N 47°39' W 122°20'0 0.0
2015-May-03 11:32N 47°39' W 122°20'0 0.0
2015-May-03 10:33N 47°39' W 122°20'0 0.4
2015-May-03 10:33N 47°39' W 122°20'0 0.0
2015-May-03 09:33N 47°39' W 122°20'0 0.0
2015-May-03 09:32N 47°39' W 122°20'0 0.0
2015-May-03 08:33N 47°39' W 122°20'0 0.0
2015-May-03 08:31N 47°39' W 122°20'0 0.0
2015-May-03 07:33N 47°39' W 122°20'0 0.0
2015-May-03 07:31N 47°39' W 122°20'0 0.0
2015-May-03 06:51N 47°39' W 122°20'0 0.0
2015-May-03 06:33N 47°39' W 122°20'0 0.0
2015-May-03 05:33N 47°39' W 122°20'0 0.0
2015-May-03 05:30N 47°39' W 122°20'0 0.0
2015-May-03 04:33N 47°39' W 122°20'0 0.1
2015-May-03 04:29N 47°39' W 122°20'0 0.0
2015-May-03 03:33N 47°39' W 122°20'0 0.1
2015-May-03 03:30N 47°39' W 122°20'0 0.0
2015-May-03 02:33N 47°39' W 122°20'0 0.0
2015-May-03 02:30N 47°39' W 122°20'0 0.0
2015-May-03 01:33N 47°39' W 122°20'0 0.1
2015-May-03 01:30N 47°39' W 122°20'0 0.0
2015-May-03 00:32N 47°39' W 122°20'0 0.0
2015-May-03 00:29N 47°39' W 122°20'0 0.0
2015-May-02 23:33N 47°39' W 122°20'0 0.0
2015-May-02 23:29N 47°39' W 122°20'3 3.4
2015-May-02 22:33N 47°39' W 122°16'1 0.6
2015-May-02 21:32N 47°39' W 122°17'0 0.2
2015-May-02 21:16N 47°39' W 122°17'1 1.9
2015-May-02 20:33N 47°38' W 122°15'0 0.0
2015-May-02 19:45N 47°38' W 122°15'0 0.0
2015-May-02 19:33N 47°38' W 122°15'0 0.0
2015-May-02 18:59N 47°38' W 122°15'0 0.0
2015-May-02 18:33N 47°38' W 122°15'0 0.0
2015-May-02 18:18N 47°38' W 122°15'1 1.0
2015-May-02 17:34N 47°39' W 122°16'0 7.7
2015-May-02 17:33N 47°39' W 122°15'0 0.4
2015-May-02 16:31N 47°39' W 122°15'0 6.0
2015-May-02 16:28N 47°39' W 122°15'0 0.2
2015-May-02 15:30N 47°39' W 122°15'2 4.3
2015-May-02 15:07N 47°40' W 122°15'4 7.4
2015-May-02 14:33N 47°44' W 122°16'0 0.2
2015-May-02 13:36N 47°45' W 122°16'0 3.5
2015-May-02 13:29N 47°45' W 122°16'2 2.2
2015-May-02 12:46N 47°43' W 122°16'2 8.4
2015-May-02 12:33N 47°42' W 122°15'1 8.1
2015-May-02 12:26N 47°41' W 122°15'4 4.5
2015-May-02 11:34N 47°39' W 122°20'0 3.7
2015-May-02 11:25N 47°39' W 122°20'3 3.1
2015-May-02 10:33N 47°40' W 122°24'0 0.9
2015-May-02 10:30N 47°40' W 122°24'5 4.8
2015-May-02 09:34N 47°36' W 122°26'1 7.7
2015-May-02 09:29N 47°35' W 122°26'7 7.3
2015-May-02 08:33N 47°29' W 122°30'7 8.6
2015-May-02 07:43N 47°22' W 122°32'1 9.0
2015-May-02 07:33N 47°20' W 122°32'7 6.7
2015-May-02 06:32N 47°16' W 122°24'2 2.5
2015-May-02 05:33N 47°18' W 122°27'8 7.9
2015-May-02 04:33N 47°25' W 122°32'3 8.1
2015-May-02 04:08N 47°28' W 122°31'5 8.4
2015-May-02 03:33N 47°33' W 122°28'1 8.9
2015-May-02 03:27N 47°34' W 122°28'7 8.2
2015-May-02 02:33N 47°41' W 122°25'1 1.7
2015-May-02 01:40N 47°40' W 122°23'0 0.0
2015-May-02 01:33N 47°40' W 122°23'0 0.0
2015-May-02 01:31N 47°40' W 122°23'3 2.8
2015-May-02 00:33N 47°38' W 122°20'0 0.8
2015-May-02 00:29N 47°39' W 122°20'3 3.4
2015-May-01 23:33N 47°39' W 122°15'0 0.0
2015-May-01 23:33N 47°39' W 122°15'3 3.5
2015-May-01 22:33N 47°39' W 122°20'0 0.0
2015-May-01 22:32N 47°39' W 122°20'0 0.0
2015-May-01 21:33N 47°39' W 122°20'0 0.0
2015-May-01 21:32N 47°39' W 122°20'0 0.0
2015-May-01 20:33N 47°39' W 122°20'0 0.0
2015-May-01 20:31N 47°39' W 122°20'0 0.0
2015-May-01 19:33N 47°39' W 122°20'0 0.0
2015-May-01 18:59N 47°39' W 122°20'0 0.0
2015-May-01 18:33N 47°39' W 122°20'0 0.0
2015-May-01 18:29N 47°39' W 122°20'0 0.5
2015-May-01 17:33N 47°38' W 122°20'0 5.2
2015-May-01 17:29N 47°39' W 122°20'0 0.1
2015-May-01 16:33N 47°39' W 122°20'0 0.0
2015-May-01 16:24N 47°39' W 122°20'0 0.0
2015-May-01 15:33N 47°39' W 122°20'0 0.0
2015-May-01 15:07N 47°39' W 122°20'0 0.0
2015-May-01 14:34N 47°39' W 122°20'0 0.0
2015-May-01 14:32N 47°39' W 122°20'0 0.0
2015-May-01 13:34N 47°39' W 122°20'0 0.0
2015-May-01 13:31N 47°39' W 122°20'0 0.0
2015-May-01 12:34N 47°39' W 122°20'0 0.0
2015-May-01 11:33N 47°39' W 122°20'0 0.0
2015-May-01 10:46N 47°39' W 122°20'0 0.2
2015-May-01 10:34N 47°39' W 122°20'0 1.1
2015-May-01 10:31N 47°39' W 122°20'0 0.0
2015-May-01 09:34N 47°39' W 122°20'0 0.0
2015-May-01 09:31N 47°39' W 122°20'0 0.0
2015-May-01 08:34N 47°39' W 122°20'0 0.0
2015-May-01 08:31N 47°39' W 122°20'0 0.0
2015-May-01 07:33N 47°39' W 122°20'0 0.1
2015-May-01 07:30N 47°39' W 122°20'0 0.0
2015-May-01 06:34N 47°39' W 122°20'0 0.0
2015-May-01 06:30N 47°39' W 122°20'0 0.0
2015-May-01 06:15N 47°39' W 122°20'0 0.0
2015-May-01 05:33N 47°39' W 122°20'0 0.0
2015-May-01 04:34N 47°39' W 122°20'0 0.1
2015-May-01 04:29N 47°39' W 122°20'0 0.0
2015-May-01 03:34N 47°39' W 122°20'0 0.0
2015-May-01 02:47N 47°39' W 122°20'0 0.0
2015-May-01 02:32N 47°39' W 122°20'0 0.0
2015-May-01 02:21N 47°39' W 122°20'0 0.0
2015-May-01 01:36N 47°39' W 122°20'0 0.0
2015-May-01 01:34N 47°39' W 122°20'0 0.0
2015-May-01 00:33N 47°39' W 122°20'0 0.0
2015-May-01 00:30N 47°39' W 122°20'0 0.0
2015-Apr-30 23:33N 47°39' W 122°20'0 0.0
2015-Apr-30 23:31N 47°39' W 122°20'0 0.0
2015-Apr-30 22:34N 47°39' W 122°20'0 0.0
2015-Apr-30 22:31N 47°39' W 122°20'0 0.0
2015-Apr-30 21:34N 47°39' W 122°20'0 0.0
2015-Apr-30 21:30N 47°39' W 122°20'0 0.0
2015-Apr-30 20:33N 47°39' W 122°20'0 0.0
2015-Apr-30 20:29N 47°39' W 122°20'0 0.0
2015-Apr-30 19:33N 47°39' W 122°20'0 0.0
2015-Apr-30 19:29N 47°39' W 122°20'0 0.0
2015-Apr-30 18:34N 47°39' W 122°20'0 0.0
2015-Apr-30 18:33N 47°39' W 122°20'0 0.0
2015-Apr-30 17:33N 47°39' W 122°20'0 0.0
2015-Apr-30 17:33N 47°39' W 122°20'0 0.0
2015-Apr-30 16:33N 47°39' W 122°20'0 0.0
2015-Apr-30 16:33N 47°39' W 122°20'0 0.0
2015-Apr-30 15:33N 47°39' W 122°20'0 0.0
2015-Apr-30 15:32N 47°39' W 122°20'0 0.0
2015-Apr-30 14:34N 47°39' W 122°20'0 0.2
2015-Apr-30 14:31N 47°39' W 122°20'0 0.0
2015-Apr-30 13:33N 47°39' W 122°20'0 0.0
2015-Apr-30 13:24N 47°39' W 122°20'0 0.0
2015-Apr-30 12:33N 47°39' W 122°20'0 0.0
2015-Apr-30 12:33N 47°39' W 122°20'0 0.0
2015-Apr-30 11:34N 47°39' W 122°20'0 0.7
2015-Apr-30 11:33N 47°39' W 122°20'0 0.0
2015-Apr-30 10:33N 47°39' W 122°20'0 0.0
2015-Apr-30 10:33N 47°39' W 122°20'0 0.0
2015-Apr-30 09:34N 47°39' W 122°20'0 0.0
2015-Apr-30 09:32N 47°39' W 122°20'0 0.0
2015-Apr-30 08:34N 47°39' W 122°20'0 0.0
2015-Apr-30 08:32N 47°39' W 122°20'0 0.0
2015-Apr-30 07:34N 47°39' W 122°20'0 0.0
2015-Apr-30 07:32N 47°39' W 122°20'0 0.0
2015-Apr-30 06:33N 47°39' W 122°20'0 0.0
2015-Apr-30 06:31N 47°39' W 122°20'0 0.0
2015-Apr-30 06:06N 47°39' W 122°20'0 0.0
2015-Apr-30 05:33N 47°39' W 122°20'0 0.0
2015-Apr-30 04:34N 47°39' W 122°20'0 0.0
2015-Apr-30 04:31N 47°39' W 122°20'0 0.0
2015-Apr-30 03:34N 47°39' W 122°20'0 0.0
2015-Apr-30 03:30N 47°39' W 122°20'0 0.0
2015-Apr-30 02:34N 47°39' W 122°20'0 0.0
2015-Apr-30 02:25N 47°39' W 122°20'0 0.0
2015-Apr-30 01:34N 47°39' W 122°20'0 0.0
2015-Apr-30 01:30N 47°39' W 122°20'0 0.0
2015-Apr-30 00:34N 47°39' W 122°20'0 0.0
2015-Apr-29 23:33N 47°39' W 122°20'0 0.0
2015-Apr-29 23:01N 47°39' W 122°20'0 0.0
2015-Apr-29 22:33N 47°39' W 122°20'0 0.0
2015-Apr-29 22:31N 47°39' W 122°20'0 0.0
2015-Apr-29 21:33N 47°39' W 122°20'0 0.0
2015-Apr-29 21:31N 47°39' W 122°20'0 0.0
2015-Apr-29 20:33N 47°39' W 122°20'0 0.2
2015-Apr-29 20:31N 47°39' W 122°20'0 0.0
2015-Apr-29 19:34N 47°39' W 122°20'0 0.0
2015-Apr-29 19:20N 47°39' W 122°20'0 0.0
2015-Apr-29 18:33N 47°39' W 122°20'0 0.0
2015-Apr-29 18:30N 47°39' W 122°20'0 0.0
2015-Apr-29 17:33N 47°39' W 122°20'0 0.0
2015-Apr-29 17:23N 47°39' W 122°20'0 0.0
2015-Apr-29 16:34N 47°39' W 122°20'0 0.0
2015-Apr-29 16:34N 47°39' W 122°20'0 0.0
2015-Apr-29 15:33N 47°39' W 122°20'0 0.0
2015-Apr-29 15:33N 47°39' W 122°20'0 0.1
2015-Apr-29 14:33N 47°39' W 122°20'0 0.0
2015-Apr-28 20:30N 47°39' W 122°20'0 0.0
2015-Apr-28 20:28N 47°39' W 122°20'0 0.1
2015-Apr-28 19:03N 47°39' W 122°20'0 0.0
2015-Apr-28 19:02N 47°39' W 122°20'0 0.0
2015-Apr-28 18:33N 47°39' W 122°20'0 0.0
2015-Apr-28 18:32N 47°39' W 122°20'3 3.1
2015-Apr-28 17:33N 47°40' W 122°24'0 0.0
2015-Apr-28 17:32N 47°40' W 122°24'5 5.4
2015-Apr-28 16:32N 47°35' W 122°22'1 7.4
2015-Apr-28 16:26N 47°34' W 122°21'0 0.3
2015-Apr-28 15:33N 47°34' W 122°21'0 0.1
2015-Apr-28 15:30N 47°34' W 122°21'1 1.2
2015-Apr-28 14:33N 47°35' W 122°22'0 4.3
2015-Apr-28 14:29N 47°36' W 122°22'1 0.8
2015-Apr-28 13:33N 47°36' W 122°23'1 6.2
2015-Apr-28 13:19N 47°37' W 122°24'3 3.9
2015-Apr-28 12:33N 47°40' W 122°24'0 5.1
2015-Apr-28 12:29N 47°40' W 122°24'3 2.8
2015-Apr-28 11:33N 47°39' W 122°20'0 0.0
2015-Apr-28 11:29N 47°39' W 122°20'0 0.0
2015-Apr-28 10:33N 47°39' W 122°20'0 0.0
2015-Apr-28 10:33N 47°39' W 122°20'0 0.0
2015-Apr-28 09:33N 47°39' W 122°20'0 0.0
2015-Apr-28 09:33N 47°39' W 122°20'0 0.0
2015-Apr-28 08:29N 47°39' W 122°20'0 0.0
2015-Apr-28 08:26N 47°39' W 122°20'0 0.0
2015-Apr-28 07:33N 47°39' W 122°20'0 0.0
2015-Apr-28 07:31N 47°39' W 122°20'0 0.0
2015-Apr-28 06:33N 47°39' W 122°20'0 0.0
2015-Apr-28 06:31N 47°39' W 122°20'0 0.0
2015-Apr-28 06:11N 47°39' W 122°20'0 0.0
2015-Apr-28 05:33N 47°39' W 122°20'0 0.0
2015-Apr-28 04:32N 47°39' W 122°20'0 0.0
2015-Apr-28 04:30N 47°39' W 122°20'0 0.0
2015-Apr-28 03:33N 47°39' W 122°20'0 0.0
2015-Apr-28 03:30N 47°39' W 122°20'0 0.0
2015-Apr-28 02:33N 47°39' W 122°20'0 0.0
2015-Apr-28 02:30N 47°39' W 122°20'0 0.0
2015-Apr-28 01:33N 47°39' W 122°20'0 0.0
2015-Apr-28 01:29N 47°39' W 122°20'0 0.0
2015-Apr-28 00:33N 47°39' W 122°20'0 0.0
2015-Apr-28 00:29N 47°39' W 122°20'0 0.0
2015-Apr-27 23:33N 47°39' W 122°20'0 0.0
2015-Apr-27 23:28N 47°39' W 122°20'0 0.0
2015-Apr-27 22:34N 47°39' W 122°20'0 0.0
2015-Apr-27 22:33N 47°39' W 122°20'0 0.0
2015-Apr-27 21:33N 47°39' W 122°20'0 0.0
2015-Apr-27 21:33N 47°39' W 122°20'0 0.0
2015-Apr-27 20:32N 47°39' W 122°20'0 0.0
2015-Apr-27 20:28N 47°39' W 122°20'0 0.0
2015-Apr-27 19:33N 47°39' W 122°20'0 0.0
2015-Apr-27 19:33N 47°39' W 122°20'0 0.0
2015-Apr-27 18:33N 47°39' W 122°20'0 0.0
2015-Apr-27 18:33N 47°39' W 122°20'0 0.0
2015-Apr-27 17:33N 47°39' W 122°20'0 0.0
2015-Apr-27 17:32N 47°39' W 122°20'0 0.0
2015-Apr-27 16:33N 47°39' W 122°20'0 0.0
2015-Apr-27 16:32N 47°39' W 122°20'0 0.0
2015-Apr-27 15:33N 47°39' W 122°20'0 0.0
2015-Apr-27 15:32N 47°39' W 122°20'0 0.0
2015-Apr-27 14:33N 47°39' W 122°20'0 0.0
2015-Apr-27 14:32N 47°39' W 122°20'3 3.5
2015-Apr-27 13:33N 47°39' W 122°15'0 4.0
2015-Apr-27 13:31N 47°39' W 122°15'6 6.5
2015-Apr-27 12:33N 47°45' W 122°16'1 0.7
2015-Apr-27 11:33N 47°45' W 122°16'0 0.0
2015-Apr-27 10:33N 47°45' W 122°16'5 6.1
2015-Apr-27 09:49N 47°40' W 122°15'2 7.6
2015-Apr-27 09:30N 47°39' W 122°18'1 6.4
2015-Apr-27 09:24N 47°39' W 122°19'1 1.3
2015-Apr-27 08:33N 47°39' W 122°20'0 0.0
2015-Apr-27 08:33N 47°39' W 122°20'0 0.0
2015-Apr-27 07:33N 47°39' W 122°20'0 0.0
2015-Apr-27 07:33N 47°39' W 122°20'0 0.0
2015-Apr-27 06:33N 47°39' W 122°20'0 0.0
2015-Apr-27 06:32N 47°39' W 122°20'0 0.0
2015-Apr-27 06:08N 47°39' W 122°20'0 0.0
2015-Apr-27 05:33N 47°39' W 122°20'0 0.0
2015-Apr-27 04:33N 47°39' W 122°20'0 0.0
2015-Apr-27 04:27N 47°39' W 122°20'0 0.0
2015-Apr-27 03:33N 47°39' W 122°20'0 0.0
2015-Apr-27 03:32N 47°39' W 122°20'0 0.0
2015-Apr-27 02:33N 47°39' W 122°20'0 0.0
2015-Apr-27 02:32N 47°39' W 122°20'0 0.0
2015-Apr-27 01:33N 47°39' W 122°20'0 0.0
2015-Apr-27 01:32N 47°39' W 122°20'0 0.0
2015-Apr-27 00:33N 47°39' W 122°20'0 0.0
2015-Apr-27 00:31N 47°39' W 122°20'0 0.0
2015-Apr-26 23:33N 47°39' W 122°20'0 0.0
2015-Apr-26 23:31N 47°39' W 122°20'0 0.0
2015-Apr-26 22:33N 47°39' W 122°20'0 0.0
2015-Apr-26 22:31N 47°39' W 122°20'0 0.0
2015-Apr-26 21:30N 47°39' W 122°20'0 0.0
2015-Apr-26 21:30N 47°39' W 122°20'0 0.0
2015-Apr-26 20:33N 47°39' W 122°20'0 0.0
2015-Apr-26 20:25N 47°39' W 122°20'0 0.0
2015-Apr-26 19:33N 47°39' W 122°20'0 0.0
2015-Apr-26 19:30N 47°39' W 122°20'0 0.0
2015-Apr-26 18:33N 47°39' W 122°20'0 0.0
2015-Apr-26 18:02N 47°39' W 122°20'0 0.0
2015-Apr-26 17:33N 47°39' W 122°20'0 0.0
2015-Apr-26 17:32N 47°39' W 122°20'0 0.0
2015-Apr-26 15:21N 47°39' W 122°20'0 0.0
2015-Apr-26 15:18N 47°39' W 122°20'0 0.0
2015-Apr-26 14:33N 47°39' W 122°20'0 0.0
2015-Apr-26 14:33N 47°39' W 122°20'0 0.0
2015-Apr-26 13:33N 47°39' W 122°20'0 0.0
2015-Apr-26 13:33N 47°39' W 122°20'0 0.0
2015-Apr-26 12:33N 47°39' W 122°20'0 0.0
2015-Apr-26 12:33N 47°39' W 122°20'0 0.0
2015-Apr-26 11:16N 47°39' W 122°20'0 0.0
2015-Apr-26 10:33N 47°39' W 122°20'0 0.0
2015-Apr-26 10:30N 47°39' W 122°20'0 0.0
2015-Apr-26 09:23N 47°39' W 122°20'0 0.0
2015-Apr-26 09:20N 47°39' W 122°20'0 0.0
2015-Apr-26 08:33N 47°39' W 122°20'0 0.0
2015-Apr-26 08:30N 47°39' W 122°20'0 0.0
2015-Apr-26 07:33N 47°39' W 122°20'0 0.0
2015-Apr-26 07:30N 47°39' W 122°20'0 0.0
2015-Apr-26 06:24N 47°39' W 122°20'0 0.0
2015-Apr-26 05:27N 47°39' W 122°20'0 0.0
2015-Apr-26 05:22N 47°39' W 122°20'0 0.0
2015-Apr-26 04:32N 47°39' W 122°20'0 0.0
2015-Apr-26 04:26N 47°39' W 122°20'0 0.0
2015-Apr-26 03:33N 47°39' W 122°20'0 0.0
2015-Apr-26 03:31N 47°39' W 122°20'0 0.0
2015-Apr-26 02:33N 47°39' W 122°20'0 0.0
2015-Apr-26 02:31N 47°39' W 122°20'0 0.0
2015-Apr-26 01:33N 47°39' W 122°20'0 0.0
2015-Apr-26 01:31N 47°39' W 122°20'0 0.0
2015-Apr-26 00:33N 47°39' W 122°20'0 0.0
2015-Apr-26 00:30N 47°39' W 122°20'0 0.0
2015-Apr-25 23:33N 47°39' W 122°20'0 0.0
2015-Apr-25 23:30N 47°39' W 122°20'0 0.0
2015-Apr-25 22:33N 47°39' W 122°20'0 0.0
2015-Apr-25 22:30N 47°39' W 122°20'0 0.0
2015-Apr-25 21:15N 47°39' W 122°20'0 0.0
2015-Apr-25 20:31N 47°39' W 122°20'0 0.0
2015-Apr-25 18:15N 47°39' W 122°20'0 0.0
2015-Apr-25 06:19N 47°39' W 122°20'0 0.0
2015-Apr-25 04:10N 47°39' W 122°20'0 0.0
2015-Apr-25 03:31N 47°39' W 122°20'0 0.0
2015-Apr-25 01:29N 47°39' W 122°20'0 0.0
2015-Apr-25 00:29N 47°39' W 122°20'0 0.0
2015-Apr-24 23:33N 47°39' W 122°20'0 0.0
2015-Apr-24 22:33N 47°39' W 122°20'0 0.0
2015-Apr-24 21:33N 47°39' W 122°20'0 0.0
2015-Apr-24 20:33N 47°39' W 122°20'0 0.0
2015-Apr-24 19:33N 47°39' W 122°20'0 0.0
2015-Apr-24 18:33N 47°39' W 122°20'0 0.0
2015-Apr-24 17:31N 47°39' W 122°20'0 0.0
2015-Apr-24 16:33N 47°39' W 122°20'0 0.0
2015-Apr-24 15:33N 47°39' W 122°20'0 0.0
2015-Apr-24 14:33N 47°39' W 122°20'0 0.0
2015-Apr-24 13:33N 47°39' W 122°20'0 0.0
2015-Apr-24 12:33N 47°39' W 122°20'0 0.0
2015-Apr-24 11:33N 47°39' W 122°20'0 0.0
2015-Apr-24 10:33N 47°39' W 122°20'0 0.0
2015-Apr-24 09:33N 47°39' W 122°20'0 0.0
2015-Apr-24 08:33N 47°39' W 122°20'0 0.0
2015-Apr-24 07:33N 47°39' W 122°20'0 0.0
2015-Apr-24 06:33N 47°39' W 122°20'0 0.0
2015-Apr-24 05:33N 47°39' W 122°20'0 0.0
2015-Apr-24 04:33N 47°39' W 122°20'0 0.0
2015-Apr-24 03:32N 47°39' W 122°20'0 0.0
2015-Apr-24 02:33N 47°39' W 122°20'0 0.0
2015-Apr-24 01:33N 47°39' W 122°20'0 0.0
2015-Apr-24 00:29N 47°39' W 122°20'  

Dump ship's entire track history